sensor_id;sensor_type;location;lat;lon;timestamp;P1;durP1;ratioP1;P2;durP2;ratioP2
11191;SDS011;5652;48.406;10.820;2023-07-22T00:00:09;5.82;;;4.30;;
11191;SDS011;5652;48.406;10.820;2023-07-22T00:02:40;6.07;;;4.00;;
11191;SDS011;5652;48.406;10.820;2023-07-22T00:05:07;4.70;;;3.83;;
11191;SDS011;5652;48.406;10.820;2023-07-22T00:07:36;5.15;;;3.90;;
11191;SDS011;5652;48.406;10.820;2023-07-22T00:10:05;5.22;;;4.00;;
11191;SDS011;5652;48.406;10.820;2023-07-22T00:12:34;5.30;;;4.03;;
11191;SDS011;5652;48.406;10.820;2023-07-22T00:15:01;7.07;;;4.40;;
11191;SDS011;5652;48.406;10.820;2023-07-22T00:17:29;5.70;;;4.28;;
11191;SDS011;5652;48.406;10.820;2023-07-22T00:19:56;5.30;;;4.00;;
11191;SDS011;5652;48.406;10.820;2023-07-22T00:22:23;5.68;;;4.38;;
11191;SDS011;5652;48.406;10.820;2023-07-22T00:24:53;5.13;;;4.10;;
11191;SDS011;5652;48.406;10.820;2023-07-22T00:27:20;5.55;;;4.22;;
11191;SDS011;5652;48.406;10.820;2023-07-22T00:29:47;5.53;;;4.22;;
11191;SDS011;5652;48.406;10.820;2023-07-22T00:32:14;4.72;;;4.22;;
11191;SDS011;5652;48.406;10.820;2023-07-22T00:34:41;6.03;;;4.72;;
11191;SDS011;5652;48.406;10.820;2023-07-22T00:37:08;5.82;;;4.25;;
11191;SDS011;5652;48.406;10.820;2023-07-22T00:39:35;5.43;;;4.20;;
11191;SDS011;5652;48.406;10.820;2023-07-22T00:42:04;5.07;;;4.47;;
11191;SDS011;5652;48.406;10.820;2023-07-22T00:44:33;5.57;;;4.20;;
11191;SDS011;5652;48.406;10.820;2023-07-22T00:47:00;6.43;;;4.78;;
11191;SDS011;5652;48.406;10.820;2023-07-22T00:49:27;7.93;;;5.03;;
11191;SDS011;5652;48.406;10.820;2023-07-22T00:51:55;5.38;;;4.78;;
11191;SDS011;5652;48.406;10.820;2023-07-22T00:54:23;6.30;;;4.95;;
11191;SDS011;5652;48.406;10.820;2023-07-22T00:56:50;6.00;;;4.90;;
11191;SDS011;5652;48.406;10.820;2023-07-22T00:59:18;5.72;;;4.70;;
11191;SDS011;5652;48.406;10.820;2023-07-22T01:01:46;5.80;;;4.70;;
11191;SDS011;5652;48.406;10.820;2023-07-22T01:04:13;6.65;;;4.80;;
11191;SDS011;5652;48.406;10.820;2023-07-22T01:06:42;7.95;;;5.15;;
11191;SDS011;5652;48.406;10.820;2023-07-22T01:09:10;6.32;;;5.28;;
11191;SDS011;5652;48.406;10.820;2023-07-22T01:11:37;5.63;;;5.00;;
11191;SDS011;5652;48.406;10.820;2023-07-22T01:14:04;7.78;;;5.50;;
11191;SDS011;5652;48.406;10.820;2023-07-22T01:16:32;6.55;;;5.00;;
11191;SDS011;5652;48.406;10.820;2023-07-22T01:19:00;7.53;;;5.30;;
11191;SDS011;5652;48.406;10.820;2023-07-22T01:21:27;6.10;;;5.50;;
11191;SDS011;5652;48.406;10.820;2023-07-22T01:23:57;7.00;;;5.63;;
11191;SDS011;5652;48.406;10.820;2023-07-22T01:26:24;5.95;;;5.15;;
11191;SDS011;5652;48.406;10.820;2023-07-22T01:28:51;9.38;;;5.60;;
11191;SDS011;5652;48.406;10.820;2023-07-22T01:31:28;7.25;;;6.10;;
11191;SDS011;5652;48.406;10.820;2023-07-22T01:33:55;8.82;;;5.75;;
11191;SDS011;5652;48.406;10.820;2023-07-22T01:36:23;6.55;;;5.85;;
11191;SDS011;5652;48.406;10.820;2023-07-22T01:38:51;6.95;;;6.07;;
11191;SDS011;5652;48.406;10.820;2023-07-22T01:41:19;7.30;;;5.72;;
11191;SDS011;5652;48.406;10.820;2023-07-22T01:43:46;6.53;;;5.20;;
11191;SDS011;5652;48.406;10.820;2023-07-22T01:46:14;6.50;;;5.28;;
11191;SDS011;5652;48.406;10.820;2023-07-22T01:48:41;7.00;;;5.65;;
11191;SDS011;5652;48.406;10.820;2023-07-22T01:51:08;8.30;;;5.90;;
11191;SDS011;5652;48.406;10.820;2023-07-22T01:53:36;8.50;;;5.68;;
11191;SDS011;5652;48.406;10.820;2023-07-22T01:56:03;8.13;;;5.80;;
11191;SDS011;5652;48.406;10.820;2023-07-22T01:58:32;6.32;;;5.65;;
11191;SDS011;5652;48.406;10.820;2023-07-22T02:00:59;9.20;;;6.30;;
11191;SDS011;5652;48.406;10.820;2023-07-22T02:03:26;6.13;;;5.40;;
11191;SDS011;5652;48.406;10.820;2023-07-22T02:05:55;7.00;;;5.97;;
11191;SDS011;5652;48.406;10.820;2023-07-22T02:08:27;6.93;;;5.77;;
11191;SDS011;5652;48.406;10.820;2023-07-22T02:10:55;8.13;;;6.10;;
11191;SDS011;5652;48.406;10.820;2023-07-22T02:13:25;7.75;;;6.25;;
11191;SDS011;5652;48.406;10.820;2023-07-22T02:15:54;7.93;;;6.60;;
11191;SDS011;5652;48.406;10.820;2023-07-22T02:18:21;7.97;;;6.82;;
11191;SDS011;5652;48.406;10.820;2023-07-22T02:20:48;8.95;;;6.90;;
11191;SDS011;5652;48.406;10.820;2023-07-22T02:23:15;8.75;;;7.30;;
11191;SDS011;5652;48.406;10.820;2023-07-22T02:25:43;8.68;;;6.90;;
11191;SDS011;5652;48.406;10.820;2023-07-22T02:28:10;8.85;;;7.18;;
11191;SDS011;5652;48.406;10.820;2023-07-22T02:30:37;9.73;;;7.50;;
11191;SDS011;5652;48.406;10.820;2023-07-22T02:33:06;8.75;;;7.50;;
11191;SDS011;5652;48.406;10.820;2023-07-22T02:35:33;12.55;;;7.72;;
11191;SDS011;5652;48.406;10.820;2023-07-22T02:38:00;8.80;;;7.57;;
11191;SDS011;5652;48.406;10.820;2023-07-22T02:40:27;11.70;;;8.27;;
11191;SDS011;5652;48.406;10.820;2023-07-22T02:42:54;10.45;;;7.78;;
11191;SDS011;5652;48.406;10.820;2023-07-22T02:45:21;11.57;;;8.27;;
11191;SDS011;5652;48.406;10.820;2023-07-22T02:47:48;11.73;;;8.63;;
11191;SDS011;5652;48.406;10.820;2023-07-22T02:50:17;12.48;;;8.52;;
11191;SDS011;5652;48.406;10.820;2023-07-22T02:52:44;12.75;;;8.57;;
11191;SDS011;5652;48.406;10.820;2023-07-22T02:55:12;9.55;;;8.38;;
11191;SDS011;5652;48.406;10.820;2023-07-22T02:57:40;9.57;;;8.13;;
11191;SDS011;5652;48.406;10.820;2023-07-22T03:00:08;9.93;;;8.27;;
11191;SDS011;5652;48.406;10.820;2023-07-22T03:02:36;10.23;;;8.77;;
11191;SDS011;5652;48.406;10.820;2023-07-22T03:05:04;12.32;;;8.52;;
11191;SDS011;5652;48.406;10.820;2023-07-22T03:07:34;10.57;;;8.27;;
11191;SDS011;5652;48.406;10.820;2023-07-22T03:10:01;10.35;;;8.57;;
11191;SDS011;5652;48.406;10.820;2023-07-22T03:12:28;9.40;;;8.30;;
11191;SDS011;5652;48.406;10.820;2023-07-22T03:14:55;10.52;;;8.20;;
11191;SDS011;5652;48.406;10.820;2023-07-22T03:17:23;9.45;;;8.45;;
11191;SDS011;5652;48.406;10.820;2023-07-22T03:19:50;10.63;;;8.30;;
11191;SDS011;5652;48.406;10.820;2023-07-22T03:22:17;11.00;;;7.88;;
11191;SDS011;5652;48.406;10.820;2023-07-22T03:24:46;9.23;;;7.80;;
11191;SDS011;5652;48.406;10.820;2023-07-22T03:27:13;11.40;;;8.45;;
11191;SDS011;5652;48.406;10.820;2023-07-22T03:29:42;10.15;;;8.30;;
11191;SDS011;5652;48.406;10.820;2023-07-22T03:32:09;12.02;;;9.20;;
11191;SDS011;5652;48.406;10.820;2023-07-22T03:34:36;11.25;;;8.27;;
11191;SDS011;5652;48.406;10.820;2023-07-22T03:37:03;10.77;;;8.43;;
11191;SDS011;5652;48.406;10.820;2023-07-22T03:39:30;10.13;;;8.63;;
11191;SDS011;5652;48.406;10.820;2023-07-22T03:41:59;11.13;;;8.30;;
11191;SDS011;5652;48.406;10.820;2023-07-22T03:44:26;9.80;;;8.30;;
11191;SDS011;5652;48.406;10.820;2023-07-22T03:46:54;10.00;;;8.70;;
11191;SDS011;5652;48.406;10.820;2023-07-22T03:49:21;11.02;;;8.50;;
11191;SDS011;5652;48.406;10.820;2023-07-22T03:51:48;10.23;;;8.07;;
11191;SDS011;5652;48.406;10.820;2023-07-22T03:54:15;10.15;;;8.30;;
11191;SDS011;5652;48.406;10.820;2023-07-22T03:56:42;12.68;;;8.88;;
11191;SDS011;5652;48.406;10.820;2023-07-22T03:59:10;12.98;;;9.18;;
11191;SDS011;5652;48.406;10.820;2023-07-22T04:01:38;11.57;;;8.60;;
11191;SDS011;5652;48.406;10.820;2023-07-22T04:04:05;10.07;;;8.80;;
11191;SDS011;5652;48.406;10.820;2023-07-22T04:06:32;10.00;;;8.50;;
11191;SDS011;5652;48.406;10.820;2023-07-22T04:08:59;12.15;;;8.73;;
11191;SDS011;5652;48.406;10.820;2023-07-22T04:11:26;10.02;;;8.10;;
11191;SDS011;5652;48.406;10.820;2023-07-22T04:13:53;9.57;;;8.00;;
11191;SDS011;5652;48.406;10.820;2023-07-22T04:16:21;11.48;;;8.27;;
11191;SDS011;5652;48.406;10.820;2023-07-22T04:18:49;10.07;;;8.50;;
11191;SDS011;5652;48.406;10.820;2023-07-22T04:21:16;9.70;;;8.40;;
11191;SDS011;5652;48.406;10.820;2023-07-22T04:23:43;11.27;;;8.98;;
11191;SDS011;5652;48.406;10.820;2023-07-22T04:26:10;10.80;;;8.95;;
11191;SDS011;5652;48.406;10.820;2023-07-22T04:28:37;11.98;;;9.48;;
11191;SDS011;5652;48.406;10.820;2023-07-22T04:31:05;12.00;;;9.50;;
11191;SDS011;5652;48.406;10.820;2023-07-22T04:33:35;11.65;;;9.80;;
11191;SDS011;5652;48.406;10.820;2023-07-22T04:36:02;10.98;;;9.45;;
11191;SDS011;5652;48.406;10.820;2023-07-22T04:38:30;11.02;;;9.05;;
11191;SDS011;5652;48.406;10.820;2023-07-22T04:40:57;10.25;;;8.68;;
11191;SDS011;5652;48.406;10.820;2023-07-22T04:43:25;12.40;;;9.50;;
11191;SDS011;5652;48.406;10.820;2023-07-22T04:45:52;12.07;;;10.27;;
11191;SDS011;5652;48.406;10.820;2023-07-22T04:48:20;11.45;;;9.68;;
11191;SDS011;5652;48.406;10.820;2023-07-22T04:50:50;12.00;;;9.80;;
11191;SDS011;5652;48.406;10.820;2023-07-22T04:53:17;11.10;;;9.40;;
11191;SDS011;5652;48.406;10.820;2023-07-22T04:55:45;10.88;;;9.18;;
11191;SDS011;5652;48.406;10.820;2023-07-22T04:58:12;10.80;;;9.70;;
11191;SDS011;5652;48.406;10.820;2023-07-22T05:00:39;12.45;;;9.77;;
11191;SDS011;5652;48.406;10.820;2023-07-22T05:03:07;11.25;;;10.07;;
11191;SDS011;5652;48.406;10.820;2023-07-22T05:05:34;11.23;;;9.88;;
11191;SDS011;5652;48.406;10.820;2023-07-22T05:08:03;10.95;;;9.75;;
11191;SDS011;5652;48.406;10.820;2023-07-22T05:10:32;11.10;;;9.35;;
11191;SDS011;5652;48.406;10.820;2023-07-22T05:12:59;12.13;;;9.23;;
11191;SDS011;5652;48.406;10.820;2023-07-22T05:15:26;10.27;;;8.93;;
11191;SDS011;5652;48.406;10.820;2023-07-22T05:17:53;10.15;;;9.15;;
11191;SDS011;5652;48.406;10.820;2023-07-22T05:20:21;9.52;;;8.30;;
11191;SDS011;5652;48.406;10.820;2023-07-22T05:22:48;9.70;;;8.63;;
11191;SDS011;5652;48.406;10.820;2023-07-22T05:25:17;10.15;;;8.20;;
11191;SDS011;5652;48.406;10.820;2023-07-22T05:27:44;11.40;;;7.72;;
11191;SDS011;5652;48.406;10.820;2023-07-22T05:30:11;7.90;;;7.10;;
11191;SDS011;5652;48.406;10.820;2023-07-22T05:32:38;8.23;;;7.20;;
11191;SDS011;5652;48.406;10.820;2023-07-22T05:35:05;8.00;;;6.93;;
11191;SDS011;5652;48.406;10.820;2023-07-22T05:37:34;7.93;;;6.25;;
11191;SDS011;5652;48.406;10.820;2023-07-22T05:40:01;8.13;;;6.20;;
11191;SDS011;5652;48.406;10.820;2023-07-22T05:42:29;8.30;;;6.53;;
11191;SDS011;5652;48.406;10.820;2023-07-22T05:44:57;8.18;;;6.00;;
11191;SDS011;5652;48.406;10.820;2023-07-22T05:47:24;7.03;;;6.07;;
11191;SDS011;5652;48.406;10.820;2023-07-22T05:49:51;7.32;;;5.55;;
11191;SDS011;5652;48.406;10.820;2023-07-22T05:52:18;6.93;;;5.35;;
11191;SDS011;5652;48.406;10.820;2023-07-22T05:54:45;6.13;;;5.47;;
11191;SDS011;5652;48.406;10.820;2023-07-22T05:57:12;6.38;;;5.25;;
11191;SDS011;5652;48.406;10.820;2023-07-22T05:59:41;6.30;;;4.30;;
11191;SDS011;5652;48.406;10.820;2023-07-22T06:02:08;5.63;;;4.10;;
11191;SDS011;5652;48.406;10.820;2023-07-22T06:04:36;4.57;;;3.50;;
11191;SDS011;5652;48.406;10.820;2023-07-22T06:07:04;4.15;;;3.40;;
11191;SDS011;5652;48.406;10.820;2023-07-22T06:09:31;5.32;;;3.15;;
11191;SDS011;5652;48.406;10.820;2023-07-22T06:11:58;4.37;;;3.30;;
11191;SDS011;5652;48.406;10.820;2023-07-22T06:14:25;3.38;;;2.70;;
11191;SDS011;5652;48.406;10.820;2023-07-22T06:16:53;5.10;;;2.70;;
11191;SDS011;5652;48.406;10.820;2023-07-22T06:19:21;4.93;;;2.75;;
11191;SDS011;5652;48.406;10.820;2023-07-22T06:21:48;5.65;;;2.58;;
11191;SDS011;5652;48.406;10.820;2023-07-22T06:24:16;2.80;;;2.20;;
11191;SDS011;5652;48.406;10.820;2023-07-22T06:26:43;4.13;;;2.33;;
11191;SDS011;5652;48.406;10.820;2023-07-22T06:29:10;3.93;;;2.13;;
11191;SDS011;5652;48.406;10.820;2023-07-22T06:31:37;3.58;;;2.25;;
11191;SDS011;5652;48.406;10.820;2023-07-22T06:34:05;3.63;;;2.38;;
11191;SDS011;5652;48.406;10.820;2023-07-22T06:36:32;4.20;;;2.60;;
11191;SDS011;5652;48.406;10.820;2023-07-22T06:38:59;3.95;;;2.20;;
11191;SDS011;5652;48.406;10.820;2023-07-22T06:41:26;4.22;;;2.50;;
11191;SDS011;5652;48.406;10.820;2023-07-22T06:43:53;3.73;;;2.30;;
11191;SDS011;5652;48.406;10.820;2023-07-22T06:46:21;5.28;;;2.70;;
11191;SDS011;5652;48.406;10.820;2023-07-22T06:48:48;3.70;;;2.60;;
11191;SDS011;5652;48.406;10.820;2023-07-22T06:51:16;4.57;;;2.78;;
11191;SDS011;5652;48.406;10.820;2023-07-22T06:53:44;3.85;;;2.65;;
11191;SDS011;5652;48.406;10.820;2023-07-22T06:56:11;4.25;;;2.72;;
11191;SDS011;5652;48.406;10.820;2023-07-22T06:58:38;4.22;;;2.85;;
11191;SDS011;5652;48.406;10.820;2023-07-22T07:01:05;4.20;;;2.80;;
11191;SDS011;5652;48.406;10.820;2023-07-22T07:03:32;3.95;;;2.80;;
11191;SDS011;5652;48.406;10.820;2023-07-22T07:05:59;3.58;;;2.50;;
11191;SDS011;5652;48.406;10.820;2023-07-22T07:08:28;5.70;;;3.10;;
11191;SDS011;5652;48.406;10.820;2023-07-22T07:10:55;5.10;;;2.67;;
11191;SDS011;5652;48.406;10.820;2023-07-22T07:13:22;4.22;;;2.67;;
11191;SDS011;5652;48.406;10.820;2023-07-22T07:15:49;3.10;;;2.60;;
11191;SDS011;5652;48.406;10.820;2023-07-22T07:18:16;3.00;;;2.30;;
11191;SDS011;5652;48.406;10.820;2023-07-22T07:20:43;3.40;;;2.30;;
11191;SDS011;5652;48.406;10.820;2023-07-22T07:23:11;2.88;;;2.40;;
11191;SDS011;5652;48.406;10.820;2023-07-22T07:25:39;3.65;;;2.30;;
11191;SDS011;5652;48.406;10.820;2023-07-22T07:28:06;3.25;;;2.33;;
11191;SDS011;5652;48.406;10.820;2023-07-22T07:30:33;2.40;;;2.10;;
11191;SDS011;5652;48.406;10.820;2023-07-22T07:33:00;3.55;;;2.10;;
11191;SDS011;5652;48.406;10.820;2023-07-22T07:35:27;4.85;;;2.17;;
11191;SDS011;5652;48.406;10.820;2023-07-22T07:37:55;2.97;;;2.00;;
11191;SDS011;5652;48.406;10.820;2023-07-22T07:40:22;4.40;;;2.03;;
11191;SDS011;5652;48.406;10.820;2023-07-22T07:42:50;4.00;;;1.97;;
11191;SDS011;5652;48.406;10.820;2023-07-22T07:45:17;4.47;;;2.25;;
11191;SDS011;5652;48.406;10.820;2023-07-22T07:47:45;2.80;;;1.90;;
11191;SDS011;5652;48.406;10.820;2023-07-22T07:50:12;3.13;;;2.03;;
11191;SDS011;5652;48.406;10.820;2023-07-22T07:52:39;3.05;;;2.20;;
11191;SDS011;5652;48.406;10.820;2023-07-22T07:55:07;3.55;;;2.35;;
11191;SDS011;5652;48.406;10.820;2023-07-22T07:57:34;2.13;;;1.90;;
11191;SDS011;5652;48.406;10.820;2023-07-22T08:00:03;2.65;;;2.08;;
11191;SDS011;5652;48.406;10.820;2023-07-22T08:02:33;4.05;;;1.90;;
11191;SDS011;5652;48.406;10.820;2023-07-22T08:05:00;2.58;;;1.95;;
11191;SDS011;5652;48.406;10.820;2023-07-22T08:07:28;3.95;;;1.83;;
11191;SDS011;5652;48.406;10.820;2023-07-22T08:09:56;2.25;;;1.70;;
11191;SDS011;5652;48.406;10.820;2023-07-22T08:12:24;3.60;;;1.90;;
11191;SDS011;5652;48.406;10.820;2023-07-22T08:14:52;2.85;;;1.70;;
11191;SDS011;5652;48.406;10.820;2023-07-22T08:17:20;2.50;;;1.58;;
11191;SDS011;5652;48.406;10.820;2023-07-22T08:19:47;1.70;;;1.40;;
11191;SDS011;5652;48.406;10.820;2023-07-22T08:22:15;2.00;;;1.40;;
11191;SDS011;5652;48.406;10.820;2023-07-22T08:24:44;2.50;;;1.80;;
11191;SDS011;5652;48.406;10.820;2023-07-22T08:27:11;2.08;;;1.70;;
11191;SDS011;5652;48.406;10.820;2023-07-22T08:29:39;4.83;;;2.20;;
11191;SDS011;5652;48.406;10.820;2023-07-22T08:32:06;2.03;;;1.50;;
11191;SDS011;5652;48.406;10.820;2023-07-22T08:34:34;2.72;;;1.80;;
11191;SDS011;5652;48.406;10.820;2023-07-22T08:37:01;2.67;;;1.58;;
11191;SDS011;5652;48.406;10.820;2023-07-22T08:39:29;3.00;;;1.75;;
11191;SDS011;5652;48.406;10.820;2023-07-22T08:41:56;2.72;;;1.80;;
11191;SDS011;5652;48.406;10.820;2023-07-22T08:44:23;3.17;;;1.87;;
11191;SDS011;5652;48.406;10.820;2023-07-22T08:46:52;2.30;;;1.70;;
11191;SDS011;5652;48.406;10.820;2023-07-22T08:49:23;2.75;;;1.80;;
11191;SDS011;5652;48.406;10.820;2023-07-22T08:51:51;4.40;;;1.70;;
11191;SDS011;5652;48.406;10.820;2023-07-22T08:54:19;2.70;;;1.73;;
11191;SDS011;5652;48.406;10.820;2023-07-22T08:56:47;2.75;;;1.73;;
11191;SDS011;5652;48.406;10.820;2023-07-22T08:59:15;2.60;;;1.60;;
11191;SDS011;5652;48.406;10.820;2023-07-22T09:01:42;1.45;;;1.35;;
11191;SDS011;5652;48.406;10.820;2023-07-22T09:04:09;1.90;;;1.50;;
11191;SDS011;5652;48.406;10.820;2023-07-22T09:06:36;1.98;;;1.42;;
11191;SDS011;5652;48.406;10.820;2023-07-22T09:09:04;2.53;;;1.60;;
11191;SDS011;5652;48.406;10.820;2023-07-22T09:11:33;1.90;;;1.50;;
11191;SDS011;5652;48.406;10.820;2023-07-22T09:14:01;3.40;;;1.30;;
11191;SDS011;5652;48.406;10.820;2023-07-22T09:16:29;1.88;;;1.45;;
11191;SDS011;5652;48.406;10.820;2023-07-22T09:18:57;2.20;;;1.50;;
11191;SDS011;5652;48.406;10.820;2023-07-22T09:21:24;1.98;;;1.30;;
11191;SDS011;5652;48.406;10.820;2023-07-22T09:23:53;1.90;;;1.60;;
11191;SDS011;5652;48.406;10.820;2023-07-22T09:26:21;4.25;;;1.40;;
11191;SDS011;5652;48.406;10.820;2023-07-22T09:28:49;2.90;;;1.52;;
11191;SDS011;5652;48.406;10.820;2023-07-22T09:31:16;3.47;;;1.20;;
11191;SDS011;5652;48.406;10.820;2023-07-22T09:33:43;2.70;;;1.50;;
11191;SDS011;5652;48.406;10.820;2023-07-22T09:36:10;2.13;;;1.40;;
11191;SDS011;5652;48.406;10.820;2023-07-22T09:38:38;2.35;;;1.45;;
11191;SDS011;5652;48.406;10.820;2023-07-22T09:41:05;3.25;;;1.58;;
11191;SDS011;5652;48.406;10.820;2023-07-22T09:43:37;2.30;;;1.38;;
11191;SDS011;5652;48.406;10.820;2023-07-22T09:46:08;2.10;;;1.40;;
11191;SDS011;5652;48.406;10.820;2023-07-22T09:48:42;2.03;;;1.40;;
11191;SDS011;5652;48.406;10.820;2023-07-22T09:51:13;2.63;;;1.40;;
11191;SDS011;5652;48.406;10.820;2023-07-22T09:53:45;2.15;;;1.42;;
11191;SDS011;5652;48.406;10.820;2023-07-22T09:56:12;2.03;;;1.35;;
11191;SDS011;5652;48.406;10.820;2023-07-22T09:58:41;2.60;;;1.65;;
11191;SDS011;5652;48.406;10.820;2023-07-22T10:01:09;1.92;;;1.40;;
11191;SDS011;5652;48.406;10.820;2023-07-22T10:03:38;2.10;;;1.40;;
11191;SDS011;5652;48.406;10.820;2023-07-22T10:06:06;2.43;;;1.40;;
11191;SDS011;5652;48.406;10.820;2023-07-22T10:08:34;2.90;;;1.40;;
11191;SDS011;5652;48.406;10.820;2023-07-22T10:11:03;2.40;;;1.40;;
11191;SDS011;5652;48.406;10.820;2023-07-22T10:13:32;3.67;;;1.40;;
11191;SDS011;5652;48.406;10.820;2023-07-22T10:16:01;1.92;;;1.35;;
11191;SDS011;5652;48.406;10.820;2023-07-22T10:18:28;2.17;;;1.50;;
11191;SDS011;5652;48.406;10.820;2023-07-22T10:20:56;2.80;;;1.50;;
11191;SDS011;5652;48.406;10.820;2023-07-22T10:23:25;1.85;;;1.50;;
11191;SDS011;5652;48.406;10.820;2023-07-22T10:25:52;1.60;;;1.38;;
11191;SDS011;5652;48.406;10.820;2023-07-22T10:28:22;3.65;;;1.38;;
11191;SDS011;5652;48.406;10.820;2023-07-22T10:30:49;1.98;;;1.50;;
11191;SDS011;5652;48.406;10.820;2023-07-22T10:33:17;1.93;;;1.40;;
11191;SDS011;5652;48.406;10.820;2023-07-22T10:38:27;3.20;;;1.52;;
11191;SDS011;5652;48.406;10.820;2023-07-22T10:40:54;2.50;;;1.60;;
11191;SDS011;5652;48.406;10.820;2023-07-22T10:43:23;2.30;;;1.48;;
11191;SDS011;5652;48.406;10.820;2023-07-22T10:45:51;2.08;;;1.50;;
11191;SDS011;5652;48.406;10.820;2023-07-22T10:48:20;2.75;;;1.52;;
11191;SDS011;5652;48.406;10.820;2023-07-22T10:50:48;1.50;;;1.40;;
11191;SDS011;5652;48.406;10.820;2023-07-22T10:53:20;1.90;;;1.30;;
11191;SDS011;5652;48.406;10.820;2023-07-22T10:56:06;5.20;;;1.63;;
11191;SDS011;5652;48.406;10.820;2023-07-22T10:58:54;2.63;;;1.53;;
11191;SDS011;5652;48.406;10.820;2023-07-22T11:01:22;1.95;;;1.63;;
11191;SDS011;5652;48.406;10.820;2023-07-22T11:04:07;2.05;;;1.58;;
11191;SDS011;5652;48.406;10.820;2023-07-22T11:06:36;2.60;;;1.67;;
11191;SDS011;5652;48.406;10.820;2023-07-22T11:09:03;2.92;;;1.40;;
11191;SDS011;5652;48.406;10.820;2023-07-22T11:11:37;2.30;;;1.50;;
11191;SDS011;5652;48.406;10.820;2023-07-22T11:14:12;2.45;;;1.70;;
11191;SDS011;5652;48.406;10.820;2023-07-22T11:16:39;1.80;;;1.50;;
11191;SDS011;5652;48.406;10.820;2023-07-22T11:19:08;2.22;;;1.63;;
11191;SDS011;5652;48.406;10.820;2023-07-22T11:21:35;2.55;;;1.60;;
11191;SDS011;5652;48.406;10.820;2023-07-22T11:24:02;4.18;;;1.60;;
11191;SDS011;5652;48.406;10.820;2023-07-22T11:26:30;2.95;;;1.58;;
11191;SDS011;5652;48.406;10.820;2023-07-22T11:28:57;1.77;;;1.42;;
11191;SDS011;5652;48.406;10.820;2023-07-22T11:31:30;1.83;;;1.45;;
11191;SDS011;5652;48.406;10.820;2023-07-22T11:33:57;2.95;;;1.50;;
11191;SDS011;5652;48.406;10.820;2023-07-22T11:36:25;2.40;;;1.65;;
11191;SDS011;5652;48.406;10.820;2023-07-22T11:38:52;1.95;;;1.50;;
11191;SDS011;5652;48.406;10.820;2023-07-22T11:41:20;1.95;;;1.52;;
11191;SDS011;5652;48.406;10.820;2023-07-22T11:43:47;2.70;;;1.70;;
11191;SDS011;5652;48.406;10.820;2023-07-22T11:46:14;2.57;;;1.60;;
11191;SDS011;5652;48.406;10.820;2023-07-22T11:48:48;1.63;;;1.50;;
11191;SDS011;5652;48.406;10.820;2023-07-22T11:51:16;2.40;;;1.70;;
11191;SDS011;5652;48.406;10.820;2023-07-22T11:53:47;2.63;;;1.67;;
11191;SDS011;5652;48.406;10.820;2023-07-22T11:56:18;2.95;;;1.50;;
11191;SDS011;5652;48.406;10.820;2023-07-22T11:58:48;2.65;;;1.50;;
11191;SDS011;5652;48.406;10.820;2023-07-22T12:01:15;3.10;;;1.60;;
11191;SDS011;5652;48.406;10.820;2023-07-22T12:03:42;2.50;;;1.60;;
11191;SDS011;5652;48.406;10.820;2023-07-22T12:06:10;2.90;;;1.80;;
11191;SDS011;5652;48.406;10.820;2023-07-22T12:08:42;2.00;;;1.60;;
11191;SDS011;5652;48.406;10.820;2023-07-22T12:11:16;3.42;;;1.63;;
11191;SDS011;5652;48.406;10.820;2023-07-22T12:13:44;1.92;;;1.55;;
11191;SDS011;5652;48.406;10.820;2023-07-22T12:16:20;2.42;;;1.60;;
11191;SDS011;5652;48.406;10.820;2023-07-22T12:18:47;1.63;;;1.50;;
11191;SDS011;5652;48.406;10.820;2023-07-22T12:21:14;2.85;;;1.55;;
11191;SDS011;5652;48.406;10.820;2023-07-22T12:23:41;2.50;;;1.67;;
11191;SDS011;5652;48.406;10.820;2023-07-22T12:26:09;2.33;;;1.50;;
11191;SDS011;5652;48.406;10.820;2023-07-22T12:28:37;2.13;;;1.58;;
11191;SDS011;5652;48.406;10.820;2023-07-22T12:31:04;1.80;;;1.60;;
11191;SDS011;5652;48.406;10.820;2023-07-22T12:33:31;2.92;;;1.60;;
11191;SDS011;5652;48.406;10.820;2023-07-22T12:35:58;4.13;;;1.60;;
11191;SDS011;5652;48.406;10.820;2023-07-22T12:38:25;2.53;;;1.70;;
11191;SDS011;5652;48.406;10.820;2023-07-22T12:40:53;2.92;;;1.50;;
11191;SDS011;5652;48.406;10.820;2023-07-22T12:43:20;2.00;;;1.70;;
11191;SDS011;5652;48.406;10.820;2023-07-22T12:45:48;2.10;;;1.50;;
11191;SDS011;5652;48.406;10.820;2023-07-22T12:48:16;2.90;;;1.90;;
11191;SDS011;5652;48.406;10.820;2023-07-22T12:50:43;2.97;;;1.80;;
11191;SDS011;5652;48.406;10.820;2023-07-22T12:53:12;2.45;;;1.63;;
11191;SDS011;5652;48.406;10.820;2023-07-22T12:55:39;2.15;;;1.70;;
11191;SDS011;5652;48.406;10.820;2023-07-22T12:58:06;3.42;;;1.80;;
11191;SDS011;5652;48.406;10.820;2023-07-22T13:00:33;2.38;;;1.80;;
11191;SDS011;5652;48.406;10.820;2023-07-22T13:03:02;2.10;;;1.50;;
11191;SDS011;5652;48.406;10.820;2023-07-22T13:05:29;3.50;;;1.98;;
11191;SDS011;5652;48.406;10.820;2023-07-22T13:07:56;3.13;;;1.80;;
11191;SDS011;5652;48.406;10.820;2023-07-22T13:10:26;2.65;;;1.50;;
11191;SDS011;5652;48.406;10.820;2023-07-22T13:12:53;2.05;;;1.50;;
11191;SDS011;5652;48.406;10.820;2023-07-22T13:15:21;2.00;;;1.60;;
11191;SDS011;5652;48.406;10.820;2023-07-22T13:17:48;2.50;;;1.60;;
11191;SDS011;5652;48.406;10.820;2023-07-22T13:20:16;2.30;;;1.60;;
11191;SDS011;5652;48.406;10.820;2023-07-22T13:22:43;2.60;;;1.90;;
11191;SDS011;5652;48.406;10.820;2023-07-22T13:25:10;2.10;;;1.65;;
11191;SDS011;5652;48.406;10.820;2023-07-22T13:27:37;2.42;;;1.80;;
11191;SDS011;5652;48.406;10.820;2023-07-22T13:30:06;3.03;;;1.80;;
11191;SDS011;5652;48.406;10.820;2023-07-22T13:32:33;3.17;;;1.70;;
11191;SDS011;5652;48.406;10.820;2023-07-22T13:35:00;2.20;;;1.85;;
11191;SDS011;5652;48.406;10.820;2023-07-22T13:37:30;2.87;;;1.63;;
11191;SDS011;5652;48.406;10.820;2023-07-22T13:39:57;2.58;;;1.80;;
11191;SDS011;5652;48.406;10.820;2023-07-22T13:42:24;2.17;;;1.65;;
11191;SDS011;5652;48.406;10.820;2023-07-22T13:44:51;3.80;;;1.80;;
11191;SDS011;5652;48.406;10.820;2023-07-22T13:47:18;3.53;;;1.80;;
11191;SDS011;5652;48.406;10.820;2023-07-22T13:49:45;2.20;;;1.60;;
11191;SDS011;5652;48.406;10.820;2023-07-22T13:52:12;2.07;;;1.60;;
11191;SDS011;5652;48.406;10.820;2023-07-22T13:54:41;2.20;;;1.87;;
11191;SDS011;5652;48.406;10.820;2023-07-22T13:57:08;3.90;;;2.10;;
11191;SDS011;5652;48.406;10.820;2023-07-22T13:59:35;2.58;;;1.80;;
11191;SDS011;5652;48.406;10.820;2023-07-22T14:02:02;2.57;;;1.80;;
11191;SDS011;5652;48.406;10.820;2023-07-22T14:04:29;3.20;;;2.20;;
11191;SDS011;5652;48.406;10.820;2023-07-22T14:06:56;2.42;;;1.70;;
11191;SDS011;5652;48.406;10.820;2023-07-22T14:09:23;2.65;;;1.70;;
11191;SDS011;5652;48.406;10.820;2023-07-22T14:11:52;3.22;;;1.83;;
11191;SDS011;5652;48.406;10.820;2023-07-22T14:14:19;2.33;;;1.80;;
11191;SDS011;5652;48.406;10.820;2023-07-22T14:16:53;2.33;;;1.67;;
11191;SDS011;5652;48.406;10.820;2023-07-22T14:19:21;3.00;;;2.03;;
11191;SDS011;5652;48.406;10.820;2023-07-22T14:21:48;2.88;;;1.90;;
11191;SDS011;5652;48.406;10.820;2023-07-22T14:24:15;2.30;;;1.77;;
11191;SDS011;5652;48.406;10.820;2023-07-22T14:26:42;2.17;;;1.73;;
11191;SDS011;5652;48.406;10.820;2023-07-22T14:29:11;3.20;;;1.90;;
11191;SDS011;5652;48.406;10.820;2023-07-22T14:31:38;4.32;;;1.90;;
11191;SDS011;5652;48.406;10.820;2023-07-22T14:34:05;5.30;;;1.88;;
11191;SDS011;5652;48.406;10.820;2023-07-22T14:36:32;2.60;;;2.00;;
11191;SDS011;5652;48.406;10.820;2023-07-22T14:38:59;4.00;;;1.90;;
11191;SDS011;5652;48.406;10.820;2023-07-22T14:41:27;3.55;;;2.00;;
11191;SDS011;5652;48.406;10.820;2023-07-22T14:43:55;3.80;;;2.10;;
11191;SDS011;5652;48.406;10.820;2023-07-22T14:46:23;3.97;;;1.98;;
11191;SDS011;5652;48.406;10.820;2023-07-22T14:48:50;2.53;;;1.85;;
11191;SDS011;5652;48.406;10.820;2023-07-22T14:51:17;2.92;;;1.90;;